Jewel Of The Seas — C6FW9 — position and weather

sailwx.info

Track history (hours):
 
Tides and Currents Weather Stations Pressure Air Temp Water Temp Dewpoint Dewpoint Depression Visibility Wind Speed Wind Dir Waves Ship Positions

Jewel Of The Seas

Operator: Royal Caribbean Cruises Ltd

Last reported at 2017-Mar-25 05:00 UTC. Time now 2017-Mar-25 19:39 UTC.
Position N 13°42' W 062°24'.

Length 290 m; draft 8.6 m.

Type: Passenger vessel. MMSI: 311583000.

Wind from 090 at 24 knots

Barometer 1011.0 mb
Air temperature 26.0 ° C
Visibility: greater than 27.0 NM
Water temperature 27.0 ° C

Date/timePositionNaut miles runAvg speedWind from/ knotsBaromVisibWave heightAir tempDewpointWater temp
2017-Mar-25 05:00N 13°42' W 062°24'118 4.7 090 / 241011.027.0 26.0 27.0
2017-Mar-24 04:00N 12°30' W 060°48'78 3.4 070 / 131011.027.0 27.0 27.0
2017-Mar-23 05:00N 13°42' W 060°18'181 9.8 090 / 241010.027.0 25.0 27.0
2017-Mar-22 10:29N 16°10' W 062°05'9 9.5
2017-Mar-22 09:33N 16°18' W 062°09'9 9.5
2017-Mar-22 08:33N 16°27' W 062°13'9 9.2
2017-Mar-22 07:33N 16°35' W 062°16'9 9.4
2017-Mar-22 06:33N 16°44' W 062°20'122215.7
2017-Mar-22 06:00N 14°42' W 062°18'131283.7 090 / 191012.027.0 26.0 27.0
2017-Mar-22 05:32N 16°53' W 062°24'10 9.5
2017-Mar-22 04:29N 17°03' W 062°26'9 9.5
2017-Mar-22 03:30N 17°12' W 062°30'10 9.3
2017-Mar-22 02:29N 17°20' W 062°35'88 3.9
2017-Mar-21 04:00N 17°54' W 064°00'67 3.2 100 / 101014.0 26.0 27.0
2017-Mar-20 07:00N 18°18' W 065°06'4210.4 120 / 91012.027.0 25.0 27.0
2017-Mar-20 03:00N 18°30' W 065°48'14 9.8 150 / 91014.0 26.0 27.0
2017-Mar-20 01:33N 18°31' W 066°03'4 4.4
2017-Mar-20 00:33N 18°28' W 066°06'0 0.1
2017-Mar-19 23:32N 18°28' W 066°06'0 0.0
2017-Mar-19 22:26N 18°28' W 066°06'0 0.0
2017-Mar-19 21:32N 18°28' W 066°06'0 0.0
2017-Mar-19 20:32N 18°28' W 066°06'0 0.0
2017-Mar-19 19:26N 18°28' W 066°06'0 0.0
2017-Mar-19 18:08N 18°28' W 066°06'0 0.0
2017-Mar-19 17:32N 18°28' W 066°06'0 0.0
2017-Mar-19 16:32N 18°28' W 066°06'0 0.0
2017-Mar-19 15:29N 18°28' W 066°06'0 0.0
2017-Mar-19 14:29N 18°28' W 066°06'0 0.0
2017-Mar-19 13:29N 18°28' W 066°06'0 0.0
2017-Mar-19 12:32N 18°28' W 066°06'0 0.0
2017-Mar-19 11:32N 18°28' W 066°06'0 0.0
2017-Mar-19 10:20N 18°28' W 066°06'0 0.0
2017-Mar-19 09:33N 18°28' W 066°06'4 4.3
2017-Mar-19 08:33N 18°32' W 066°04'6913.9
2017-Mar-19 03:33N 18°11' W 064°55'31114.4
2017-Mar-18 06:00N 14°24' W 061°12'61 2.3 070 / 191012.010.8 25.0 27.0
2017-Mar-17 03:00N 13°30' W 060°42'152 6.3 070 / 221013.0 26.0 27.0
2017-Mar-16 03:00N 15°48' W 061°48'3016.5 080 / 301013.0 26.0 27.0
2017-Mar-16 01:11N 16°17' W 061°53'913.8
2017-Mar-16 00:33N 16°26' W 061°54'1414.5
2017-Mar-15 23:33N 16°40' W 061°56'1514.6
2017-Mar-15 22:33N 16°55' W 061°57'1414.1
2017-Mar-15 21:34N 17°09' W 061°56'6 5.5
2017-Mar-15 20:33N 17°07' W 061°51'0 0.0
2017-Mar-15 19:33N 17°07' W 061°51'0 0.0
2017-Mar-15 18:33N 17°07' W 061°51'0 0.0
2017-Mar-15 17:33N 17°07' W 061°51'44 4.1
2017-Mar-15 07:00N 17°00' W 062°36'   080 / 241011.027.0 25.0 27.0
Track history (hours):
 
Tides and Currents Weather Stations Pressure Air Temp Water Temp Dewpoint Dewpoint Depression Visibility Wind Speed Wind Dir Waves Ship Positions

Jewel Of The Seas

Operator: Royal Caribbean Cruises Ltd

Last reported at 2017-Mar-25 05:00 UTC. Time now 2017-Mar-25 19:39 UTC.
Position N 13°42' W 062°24'.

Length 290 m; draft 8.6 m.

Type: Passenger vessel. MMSI: 311583000.

Wind from 090 at 24 knots

Barometer 1011.0 mb
Air temperature 26.0 ° C
Visibility: greater than 27.0 NM
Water temperature 27.0 ° C

Date/timePositionNaut miles runAvg speedWind from/ knotsBaromVisibWave heightAir tempDewpointWater temp
2017-Mar-25 05:00N 13°42' W 062°24'118 4.7 090 / 241011.027.0 26.0 27.0
2017-Mar-24 04:00N 12°30' W 060°48'78 3.4 070 / 131011.027.0 27.0 27.0
2017-Mar-23 05:00N 13°42' W 060°18'181 9.8 090 / 241010.027.0 25.0 27.0
2017-Mar-22 10:29N 16°10' W 062°05'9 9.5
2017-Mar-22 09:33N 16°18' W 062°09'9 9.5
2017-Mar-22 08:33N 16°27' W 062°13'9 9.2
2017-Mar-22 07:33N 16°35' W 062°16'9 9.4
2017-Mar-22 06:33N 16°44' W 062°20'122215.7
2017-Mar-22 06:00N 14°42' W 062°18'131283.7 090 / 191012.027.0 26.0 27.0
2017-Mar-22 05:32N 16°53' W 062°24'10 9.5
2017-Mar-22 04:29N 17°03' W 062°26'9 9.5
2017-Mar-22 03:30N 17°12' W 062°30'10 9.3
2017-Mar-22 02:29N 17°20' W 062°35'88 3.9
2017-Mar-21 04:00N 17°54' W 064°00'67 3.2 100 / 101014.0 26.0 27.0
2017-Mar-20 07:00N 18°18' W 065°06'4210.4 120 / 91012.027.0 25.0 27.0
2017-Mar-20 03:00N 18°30' W 065°48'14 9.8 150 / 91014.0 26.0 27.0
2017-Mar-20 01:33N 18°31' W 066°03'4 4.4
2017-Mar-20 00:33N 18°28' W 066°06'0 0.1
2017-Mar-19 23:32N 18°28' W 066°06'0 0.0
2017-Mar-19 22:26N 18°28' W 066°06'0 0.0
2017-Mar-19 21:32N 18°28' W 066°06'0 0.0
2017-Mar-19 20:32N 18°28' W 066°06'0 0.0
2017-Mar-19 19:26N 18°28' W 066°06'0 0.0
2017-Mar-19 18:08N 18°28' W 066°06'0 0.0
2017-Mar-19 17:32N 18°28' W 066°06'0 0.0
2017-Mar-19 16:32N 18°28' W 066°06'0 0.0
2017-Mar-19 15:29N 18°28' W 066°06'0 0.0
2017-Mar-19 14:29N 18°28' W 066°06'0 0.0
2017-Mar-19 13:29N 18°28' W 066°06'0 0.0
2017-Mar-19 12:32N 18°28' W 066°06'0 0.0
2017-Mar-19 11:32N 18°28' W 066°06'0 0.0
2017-Mar-19 10:20N 18°28' W 066°06'0 0.0
2017-Mar-19 09:33N 18°28' W 066°06'4 4.3
2017-Mar-19 08:33N 18°32' W 066°04'6913.9
2017-Mar-19 03:33N 18°11' W 064°55'31114.4
2017-Mar-18 06:00N 14°24' W 061°12'61 2.3 070 / 191012.010.8 25.0 27.0
2017-Mar-17 03:00N 13°30' W 060°42'152 6.3 070 / 221013.0 26.0 27.0
2017-Mar-16 03:00N 15°48' W 061°48'3016.5 080 / 301013.0 26.0 27.0
2017-Mar-16 01:11N 16°17' W 061°53'913.8
2017-Mar-16 00:33N 16°26' W 061°54'1414.5
2017-Mar-15 23:33N 16°40' W 061°56'1514.6
2017-Mar-15 22:33N 16°55' W 061°57'1414.1
2017-Mar-15 21:34N 17°09' W 061°56'6 5.5
2017-Mar-15 20:33N 17°07' W 061°51'0 0.0
2017-Mar-15 19:33N 17°07' W 061°51'0 0.0
2017-Mar-15 18:33N 17°07' W 061°51'0 0.0
2017-Mar-15 17:33N 17°07' W 061°51'44 4.1
2017-Mar-15 07:00N 17°00' W 062°36'   080 / 241011.027.0 25.0 27.0

Dump ship's entire track history